Time,TemperatureF,DewpointF,PressureIn,WindDirection,WindDirectionDegrees,WindSpeedMPH,WindSpeedGustMPH,Humidity,HourlyPrecipIn,Conditions,Clouds,dailyrainin,SolarRadiationWatts/m^2,SoftwareType,DateUTC
2013-07-22 00:04:00,65.8,47.2,30.12,ESE,112,2.3,2.6,51,0.00,CLR,,0.00,0.0,WeatherDisplay:10.37,2013-07-21 22:04:00,
2013-07-22 00:09:00,65.7,47.0,30.12,NNE,22,2.3,2.3,51,0.00,CLR,,0.00,0.0,WeatherDisplay:10.37,2013-07-21 22:09:00,
2013-07-22 00:14:00,65.5,46.9,30.12,SSE,158,2.4,0.0,51,0.00,CLR,,0.00,0.0,WeatherDisplay:10.37,2013-07-21 22:14:00,
2013-07-22 00:19:00,65.3,47.2,30.12,ESE,112,3.5,3.5,52,0.00,CLR,,0.00,0.0,WeatherDisplay:10.37,2013-07-21 22:19:00,
2013-07-22 00:24:00,64.9,46.9,30.12,South,180,0.0,0.0,52,0.00,CLR,,0.00,0.0,WeatherDisplay:10.37,2013-07-21 22:24:00,
2013-07-22 00:29:00,64.8,46.7,30.12,WNW,292,2.3,2.3,52,0.00,CLR,,0.00,0.0,WeatherDisplay:10.37,2013-07-21 22:29:00,
2013-07-22 00:34:00,64.6,47.1,30.12,SE,135,3.5,3.5,53,0.00,CLR,,0.00,0.0,WeatherDisplay:10.37,2013-07-21 22:34:00,
2013-07-22 00:39:00,64.4,46.9,30.12,ESE,112,2.3,2.3,53,0.00,CLR,,0.00,0.0,WeatherDisplay:10.37,2013-07-21 22:39:00,
2013-07-22 00:44:00,64.2,46.7,30.12,ENE,68,1.4,1.4,53,0.00,CLR,,0.00,0.0,WeatherDisplay:10.37,2013-07-21 22:44:00,
2013-07-22 00:49:00,64.0,47.1,30.12,WNW,292,0.0,0.0,54,0.00,CLR,,0.00,0.0,WeatherDisplay:10.37,2013-07-21 22:49:00,
2013-07-22 00:54:00,63.9,46.9,30.12,NNE,22,2.3,2.3,54,0.00,CLR,,0.00,0.0,WeatherDisplay:10.37,2013-07-21 22:54:00,
2013-07-22 00:59:00,63.7,46.7,30.12,ENE,68,0.0,0.0,54,0.00,CLR,,0.00,0.0,WeatherDisplay:10.37,2013-07-21 22:59:00,
2013-07-22 01:04:00,63.5,47.0,30.12,WSW,248,0.0,0.0,55,0.00,CLR,,0.00,0.0,WeatherDisplay:10.37,2013-07-21 23:04:00,
2013-07-22 01:09:00,63.1,46.7,30.12,NNW,338,0.0,0.0,55,0.00,CLR,,0.00,0.0,WeatherDisplay:10.37,2013-07-21 23:09:00,
2013-07-22 01:14:00,63.1,46.7,30.12,WNW,292,0.0,0.0,55,0.00,CLR,,0.00,0.0,WeatherDisplay:10.37,2013-07-21 23:14:00,
2013-07-22 01:19:00,63.0,47.0,30.12,WNW,292,0.9,0.0,56,0.00,CLR,,0.00,0.0,WeatherDisplay:10.37,2013-07-21 23:19:00,
2013-07-22 01:24:00,63.0,47.5,30.15,West,270,0.0,0.0,57,0.00,CLR,,0.00,0.0,WeatherDisplay:10.37,2013-07-21 23:24:00,
2013-07-22 01:29:00,62.8,47.3,30.15,West,270,0.0,0.0,57,0.00,CLR,,0.00,0.0,WeatherDisplay:10.37,2013-07-21 23:29:00,
2013-07-22 01:34:00,62.6,47.1,30.15,WNW,292,0.0,0.0,57,0.00,CLR,,0.00,0.0,WeatherDisplay:10.37,2013-07-21 23:34:00,
2013-07-22 01:39:00,62.4,47.4,30.15,WSW,248,1.2,0.0,58,0.00,CLR,,0.00,0.0,WeatherDisplay:10.37,2013-07-21 23:39:00,
2013-07-22 01:44:00,62.2,47.7,30.15,West,270,0.0,0.0,59,0.00,CLR,,0.00,0.0,WeatherDisplay:10.37,2013-07-21 23:44:00,
2013-07-22 01:49:00,62.1,47.6,30.15,WNW,292,0.0,0.0,59,0.00,CLR,,0.00,0.0,WeatherDisplay:10.37,2013-07-21 23:49:00,
2013-07-22 01:54:00,61.9,47.8,30.15,NW,315,2.2,0.0,60,0.00,CLR,,0.00,0.0,WeatherDisplay:10.37,2013-07-21 23:54:00,
2013-07-22 01:59:00,61.7,47.7,30.15,WNW,292,0.0,0.0,60,0.00,CLR,,0.00,0.0,WeatherDisplay:10.37,2013-07-21 23:59:00,
2013-07-22 02:04:00,61.7,47.7,30.15,WSW,248,0.0,0.0,60,0.00,CLR,,0.00,0.0,WeatherDisplay:10.37,2013-07-22 00:04:00,
2013-07-22 02:09:00,61.7,48.1,30.15,WSW,248,0.0,0.0,61,0.00,CLR,,0.00,0.0,WeatherDisplay:10.37,2013-07-22 00:09:00,
2013-07-22 02:14:00,61.7,48.1,30.15,WSW,248,0.0,0.0,61,0.00,CLR,,0.00,0.0,WeatherDisplay:10.37,2013-07-22 00:14:00,
2013-07-22 02:19:00,61.7,47.7,30.15,WSW,248,0.0,0.0,60,0.00,CLR,,0.00,0.0,WeatherDisplay:10.37,2013-07-22 00:19:00,
2013-07-22 02:24:00,61.5,47.5,30.12,WSW,248,0.0,0.0,60,0.00,CLR,,0.00,0.0,WeatherDisplay:10.37,2013-07-22 00:24:00,
2013-07-22 02:29:00,61.3,47.8,30.12,WNW,292,0.0,0.0,61,0.00,CLR,,0.00,0.0,WeatherDisplay:10.37,2013-07-22 00:29:00,
2013-07-22 02:34:00,61.2,47.6,30.12,WNW,292,0.0,0.0,61,0.00,CLR,,0.00,0.0,WeatherDisplay:10.37,2013-07-22 00:34:00,
2013-07-22 02:39:00,61.0,47.4,30.12,WNW,292,0.0,0.0,61,0.00,CLR,,0.00,0.0,WeatherDisplay:10.37,2013-07-22 00:39:00,
2013-07-22 02:44:00,60.8,47.7,30.12,WNW,292,0.0,0.0,62,0.00,CLR,,0.00,0.0,WeatherDisplay:10.37,2013-07-22 00:44:00,
2013-07-22 02:49:00,60.6,47.9,30.12,WNW,292,0.0,0.0,63,0.00,CLR,,0.00,0.0,WeatherDisplay:10.37,2013-07-22 00:49:00,
2013-07-22 02:54:00,60.3,47.6,30.12,WNW,292,0.0,0.0,63,0.00,CLR,,0.00,0.0,WeatherDisplay:10.37,2013-07-22 00:54:00,
2013-07-22 02:59:00,60.1,47.4,30.12,WNW,292,0.0,0.0,63,0.00,CLR,,0.00,0.0,WeatherDisplay:10.37,2013-07-22 00:59:00,
2013-07-22 03:04:00,59.9,47.7,30.12,WNW,292,0.0,0.0,64,0.00,CLR,,0.00,0.0,WeatherDisplay:10.37,2013-07-22 01:04:00,
2013-07-22 03:09:00,59.7,47.5,30.12,WNW,292,0.0,0.0,64,0.00,CLR,,0.00,0.0,WeatherDisplay:10.37,2013-07-22 01:09:00,
2013-07-22 03:14:00,59.4,47.2,30.12,WNW,292,0.0,0.0,64,0.00,CLR,,0.00,0.0,WeatherDisplay:10.37,2013-07-22 01:14:00,
2013-07-22 03:19:00,59.2,47.4,30.12,WNW,292,0.0,0.0,65,0.00,CLR,,0.00,0.0,WeatherDisplay:10.37,2013-07-22 01:19:00,
2013-07-22 03:24:00,59.0,47.2,30.12,WNW,292,0.0,0.0,65,0.00,CLR,,0.00,0.0,WeatherDisplay:10.37,2013-07-22 01:24:00,
2013-07-22 03:29:00,58.8,47.5,30.12,WNW,292,0.0,0.0,66,0.00,CLR,,0.00,0.0,WeatherDisplay:10.37,2013-07-22 01:29:00,
2013-07-22 03:34:00,58.6,47.7,30.12,WNW,292,0.0,0.0,67,0.00,CLR,,0.00,0.0,WeatherDisplay:10.37,2013-07-22 01:34:00,
2013-07-22 03:39:00,58.5,47.5,30.12,WNW,292,0.0,0.0,67,0.00,CLR,,0.00,0.0,WeatherDisplay:10.37,2013-07-22 01:39:00,
2013-07-22 03:44:00,58.3,47.4,30.12,WNW,292,0.0,0.0,67,0.00,CLR,,0.00,0.0,WeatherDisplay:10.37,2013-07-22 01:44:00,
2013-07-22 03:49:00,58.1,47.6,30.12,WNW,292,0.0,0.0,68,0.00,CLR,,0.00,0.0,WeatherDisplay:10.37,2013-07-22 01:49:00,
2013-07-22 03:54:00,57.9,47.4,30.12,WNW,292,0.0,0.0,68,0.00,CLR,,0.00,0.0,WeatherDisplay:10.37,2013-07-22 01:54:00,
2013-07-22 03:59:00,57.7,47.2,30.12,WNW,292,0.0,0.0,68,0.00,CLR,,0.00,0.0,WeatherDisplay:10.37,2013-07-22 01:59:00,
2013-07-22 04:04:00,57.6,47.1,30.12,WNW,292,0.0,0.0,68,0.00,CLR,,0.00,0.0,WeatherDisplay:10.37,2013-07-22 02:04:00,
2013-07-22 04:09:00,57.6,47.5,30.12,WNW,292,0.0,0.0,69,0.00,CLR,,0.00,0.0,WeatherDisplay:10.37,2013-07-22 02:09:00,
2013-07-22 04:14:00,57.4,47.3,30.12,WNW,292,0.0,0.0,69,0.00,CLR,,0.00,0.0,WeatherDisplay:10.37,2013-07-22 02:14:00,
2013-07-22 04:19:00,57.2,47.1,30.12,WNW,292,0.0,0.0,69,0.00,CLR,,0.00,0.0,WeatherDisplay:10.37,2013-07-22 02:19:00,
2013-07-22 04:24:00,57.2,47.5,30.12,WNW,292,0.0,0.0,70,0.00,CLR,,0.00,0.0,WeatherDisplay:10.37,2013-07-22 02:24:00,
2013-07-22 04:29:00,57.0,47.3,30.12,WNW,292,0.0,0.0,70,0.00,CLR,,0.00,0.0,WeatherDisplay:10.37,2013-07-22 02:29:00,
2013-07-22 04:34:00,57.0,47.3,30.12,WNW,292,0.0,0.0,70,0.00,CLR,,0.00,0.0,WeatherDisplay:10.37,2013-07-22 02:34:00,
2013-07-22 04:39:00,56.8,47.5,30.12,WNW,292,0.0,0.0,71,0.00,CLR,,0.00,0.0,WeatherDisplay:10.37,2013-07-22 02:39:00,
2013-07-22 04:44:00,56.8,47.5,30.12,WNW,292,0.0,0.0,71,0.00,CLR,,0.00,0.0,WeatherDisplay:10.37,2013-07-22 02:44:00,
2013-07-22 04:49:00,56.7,47.4,30.12,WNW,292,0.0,0.0,71,0.00,CLR,,0.00,0.0,WeatherDisplay:10.37,2013-07-22 02:49:00,
2013-07-22 04:54:00,56.7,47.4,30.12,WNW,292,0.0,0.0,71,0.00,CLR,,0.00,0.0,WeatherDisplay:10.37,2013-07-22 02:54:00,
2013-07-22 04:59:00,56.5,47.6,30.12,WNW,292,0.0,0.0,72,0.00,CLR,,0.00,0.0,WeatherDisplay:10.37,2013-07-22 02:59:00,
2013-07-22 05:04:00,56.5,47.6,30.12,WNW,292,0.0,0.0,72,0.00,OVC,,0.00,0.0,WeatherDisplay:10.37,2013-07-22 03:04:00,
2013-07-22 05:09:00,56.3,47.4,30.12,WNW,292,0.0,0.0,72,0.00,OVC,,0.00,0.0,WeatherDisplay:10.37,2013-07-22 03:09:00,
2013-07-22 05:14:00,56.3,47.4,30.12,WNW,292,0.0,0.0,72,0.00,OVC,,0.00,0.0,WeatherDisplay:10.37,2013-07-22 03:14:00,
2013-07-22 05:19:00,56.1,47.2,30.12,WNW,292,0.0,0.0,72,0.00,OVC,,0.00,0.7,WeatherDisplay:10.37,2013-07-22 03:19:00,
2013-07-22 05:24:00,56.1,47.6,30.12,WNW,292,0.0,0.0,73,0.00,OVC,,0.00,2.8,WeatherDisplay:10.37,2013-07-22 03:24:00,
2013-07-22 05:29:00,55.9,47.4,30.12,WNW,292,0.0,0.0,73,0.00,OVC,,0.00,5.0,WeatherDisplay:10.37,2013-07-22 03:29:00,
2013-07-22 05:34:00,55.9,47.4,30.12,WNW,292,0.0,0.0,73,0.00,OVC,,0.00,7.3,WeatherDisplay:10.37,2013-07-22 03:34:00,
2013-07-22 05:39:00,55.9,47.4,30.12,WNW,292,0.0,0.0,73,0.00,OVC,,0.00,9.6,WeatherDisplay:10.37,2013-07-22 03:39:00,
2013-07-22 05:44:00,55.9,47.4,30.12,WNW,292,0.0,0.0,73,0.00,OVC,,0.00,11.9,WeatherDisplay:10.37,2013-07-22 03:44:00,
2013-07-22 05:49:00,55.9,47.8,30.12,WNW,292,0.0,0.0,74,0.00,OVC,,0.00,14.2,WeatherDisplay:10.37,2013-07-22 03:49:00,
2013-07-22 05:54:00,55.9,47.8,30.12,North,0,0.0,0.0,74,0.00,OVC,,0.00,16.5,WeatherDisplay:10.37,2013-07-22 03:54:00,
2013-07-22 05:59:00,56.1,47.9,30.12,North,0,0.0,0.0,74,0.00,OVC,,0.00,19.0,WeatherDisplay:10.37,2013-07-22 03:59:00,
2013-07-22 06:01:00,56.1,47.9,30.12,North,0,0.0,0.0,74,0.00,OVC,,0.00,19.5,WeatherDisplay:10.37,2013-07-22 04:01:00,
2013-07-22 06:06:00,56.1,47.9,30.12,North,0,0.0,0.0,74,0.00,OVC,,0.00,22.3,WeatherDisplay:10.37,2013-07-22 04:06:00,
2013-07-22 06:11:00,56.3,48.5,30.12,North,0,0.0,0.0,75,0.00,OVC,,0.00,24.8,WeatherDisplay:10.37,2013-07-22 04:11:00,
2013-07-22 06:16:00,56.8,49.0,30.12,North,0,0.0,0.0,75,0.00,OVC,,0.00,27.4,WeatherDisplay:10.37,2013-07-22 04:16:00,
2013-07-22 06:21:00,57.0,49.2,30.12,North,0,0.0,0.0,75,0.00,OVC,,0.00,29.9,WeatherDisplay:10.37,2013-07-22 04:21:00,
2013-07-22 06:26:00,57.2,49.3,30.12,North,0,0.0,0.0,75,0.00,OVC,,0.00,32.5,WeatherDisplay:10.37,2013-07-22 04:26:00,
2013-07-22 06:31:00,57.6,49.3,30.12,WSW,248,0.0,0.0,74,0.00,OVC,,0.00,35.0,WeatherDisplay:10.37,2013-07-22 04:31:00,
2013-07-22 06:36:00,57.7,49.5,30.09,WNW,292,0.0,0.0,74,0.00,OVC,,0.00,37.6,WeatherDisplay:10.37,2013-07-22 04:36:00,
2013-07-22 06:41:00,58.1,50.2,30.09,NW,315,0.0,0.0,75,0.00,OVC,,0.00,40.3,WeatherDisplay:10.37,2013-07-22 04:41:00,
2013-07-22 06:46:00,58.5,50.6,30.09,North,0,0.0,0.0,75,0.00,OVC,,0.00,42.9,WeatherDisplay:10.37,2013-07-22 04:46:00,
2013-07-22 06:51:00,59.0,50.7,30.09,North,0,0.0,0.0,74,0.00,OVC,,0.00,45.5,WeatherDisplay:10.37,2013-07-22 04:51:00,
2013-07-22 06:56:00,59.5,51.2,30.09,NNW,338,0.0,0.0,74,0.00,OVC,,0.00,48.3,WeatherDisplay:10.37,2013-07-22 04:56:00,
2013-07-22 07:01:00,60.3,51.6,30.09,WNW,292,0.0,0.0,73,0.00,OVC,,0.00,51.0,WeatherDisplay:10.37,2013-07-22 05:01:00,
2013-07-22 07:06:00,61.0,51.9,30.09,WNW,292,0.0,0.0,72,0.00,OVC,,0.00,53.8,WeatherDisplay:10.37,2013-07-22 05:06:00,
2013-07-22 07:11:00,61.7,52.2,30.09,WNW,292,0.0,0.0,71,0.00,OVC,,0.00,56.4,WeatherDisplay:10.37,2013-07-22 05:11:00,
2013-07-22 07:16:00,62.4,52.1,30.09,West,270,0.0,0.0,69,0.00,OVC,,0.00,59.2,WeatherDisplay:10.37,2013-07-22 05:16:00,
2013-07-22 07:21:00,63.3,52.2,30.09,WNW,292,0.0,0.0,67,0.00,OVC,,0.00,62.0,WeatherDisplay:10.37,2013-07-22 05:21:00,
2013-07-22 07:26:00,64.0,52.9,30.09,SSW,202,0.0,0.0,67,0.00,OVC,,0.00,64.8,WeatherDisplay:10.37,2013-07-22 05:26:00,
2013-07-22 07:31:00,64.6,52.5,30.09,WNW,292,0.0,0.0,65,0.00,OVC,,0.00,67.7,WeatherDisplay:10.37,2013-07-22 05:31:00,
2013-07-22 07:36:00,65.3,53.2,30.12,WNW,292,0.0,0.0,65,0.00,OVC,,0.00,70.3,WeatherDisplay:10.37,2013-07-22 05:36:00,
2013-07-22 07:41:00,65.8,53.3,30.12,WSW,248,0.0,0.0,64,0.00,OVC,,0.00,73.3,WeatherDisplay:10.37,2013-07-22 05:41:00,
2013-07-22 07:46:00,66.2,52.8,30.12,West,270,0.0,0.0,62,0.00,OVC,,0.00,76.1,WeatherDisplay:10.37,2013-07-22 05:46:00,
2013-07-22 07:51:00,66.6,53.1,30.12,NNW,338,0.0,0.0,62,0.00,OVC,,0.00,78.9,WeatherDisplay:10.37,2013-07-22 05:51:00,
2013-07-22 07:56:00,66.9,53.0,30.15,West,270,0.0,0.0,61,0.00,OVC,,0.00,81.7,WeatherDisplay:10.37,2013-07-22 05:56:00,
2013-07-22 08:01:00,67.3,52.5,30.15,WSW,248,0.0,0.0,59,0.00,OVC,,0.00,84.5,WeatherDisplay:10.37,2013-07-22 06:01:00,
2013-07-22 08:06:00,67.5,52.2,30.15,SSW,202,2.3,2.3,58,0.00,OVC,,0.00,87.3,WeatherDisplay:10.37,2013-07-22 06:06:00,
2013-07-22 08:11:00,67.8,53.0,30.15,West,270,2.3,2.3,59,0.00,OVC,,0.00,90.1,WeatherDisplay:10.37,2013-07-22 06:11:00,
2013-07-22 08:16:00,68.0,52.2,30.15,West,270,1.2,0.0,57,0.00,OVC,,0.00,92.9,WeatherDisplay:10.37,2013-07-22 06:16:00,
2013-07-22 08:21:00,68.4,52.0,30.15,NW,315,2.3,2.3,56,0.00,OVC,,0.00,95.7,WeatherDisplay:10.37,2013-07-22 06:21:00,
2013-07-22 08:26:00,68.5,52.7,30.15,WNW,292,2.3,2.3,57,0.00,OVC,,0.00,98.5,WeatherDisplay:10.37,2013-07-22 06:26:00,
2013-07-22 08:31:00,68.7,52.4,30.15,NNE,22,1.2,0.0,56,0.00,OVC,,0.00,101.3,WeatherDisplay:10.37,2013-07-22 06:31:00,
2013-07-22 08:36:00,69.1,53.2,30.15,ENE,68,1.2,0.0,57,0.00,OVC,,0.00,104.1,WeatherDisplay:10.37,2013-07-22 06:36:00,
2013-07-22 08:41:00,69.4,53.1,30.15,WSW,248,3.5,3.5,56,0.00,OVC,,0.00,106.8,WeatherDisplay:10.37,2013-07-22 06:41:00,
2013-07-22 08:46:00,69.8,52.4,30.15,SSE,158,2.6,2.6,54,0.00,OVC,,0.00,109.6,WeatherDisplay:10.37,2013-07-22 06:46:00,
2013-07-22 08:51:00,70.0,53.1,30.12,SSW,202,2.3,2.3,55,0.00,OVC,,0.00,112.4,WeatherDisplay:10.37,2013-07-22 06:51:00,
2013-07-22 08:56:00,70.3,52.4,30.12,NNW,338,2.3,2.3,53,0.00,OVC,,0.00,115.0,WeatherDisplay:10.37,2013-07-22 06:56:00,
2013-07-22 09:01:00,70.5,51.5,30.12,NNW,338,0.0,0.0,51,0.00,OVC,,0.00,117.8,WeatherDisplay:10.37,2013-07-22 07:01:00,
2013-07-22 09:06:00,70.9,52.9,30.12,WNW,292,2.3,2.3,53,0.00,OVC,,0.00,120.5,WeatherDisplay:10.37,2013-07-22 07:06:00,
2013-07-22 09:11:00,71.1,52.5,30.12,NNW,338,3.5,3.5,52,0.00,OVC,,0.00,123.1,WeatherDisplay:10.37,2013-07-22 07:11:00,
2013-07-22 09:16:00,71.4,52.9,30.12,South,180,3.3,3.3,52,0.00,OVC,,0.00,125.7,WeatherDisplay:10.37,2013-07-22 07:16:00,
2013-07-22 09:21:00,71.8,53.2,30.12,NW,315,4.6,4.6,52,0.00,OVC,,0.00,128.4,WeatherDisplay:10.37,2013-07-22 07:21:00,
2013-07-22 09:26:00,72.1,53.5,30.12,SSE,158,1.2,1.2,52,0.00,OVC,,0.00,130.8,WeatherDisplay:10.37,2013-07-22 07:26:00,
2013-07-22 09:31:00,72.5,52.2,30.12,SSW,202,4.6,4.6,49,0.00,OVC,,0.00,133.5,WeatherDisplay:10.37,2013-07-22 07:31:00,
2013-07-22 09:36:00,72.7,50.7,30.12,West,270,2.3,2.3,46,0.00,OVC,,0.00,136.0,WeatherDisplay:10.37,2013-07-22 07:36:00,
2013-07-22 09:41:00,73.0,51.6,30.12,SSW,202,4.6,4.6,47,0.00,OVC,,0.00,138.4,WeatherDisplay:10.37,2013-07-22 07:41:00,
2013-07-22 09:46:00,73.0,50.4,30.12,WNW,292,3.5,3.5,45,0.00,OVC,,0.00,140.9,WeatherDisplay:10.37,2013-07-22 07:46:00,
2013-07-22 09:51:00,73.4,51.4,30.12,WNW,292,3.5,3.5,46,0.00,OVC,,0.00,143.4,WeatherDisplay:10.37,2013-07-22 07:51:00,
2013-07-22 09:56:00,73.6,51.5,30.12,WSW,248,3.5,3.5,46,0.00,OVC,,0.00,145.7,WeatherDisplay:10.37,2013-07-22 07:56:00,
2013-07-22 10:01:00,73.9,51.3,30.12,SSW,202,3.3,3.3,45,0.00,OVC,,0.00,148.0,WeatherDisplay:10.37,2013-07-22 08:01:00,
2013-07-22 10:06:00,74.1,51.4,30.12,WNW,292,4.6,4.6,45,0.00,OVC,,0.00,150.3,WeatherDisplay:10.37,2013-07-22 08:06:00,
2013-07-22 10:11:00,74.3,51.0,30.12,WSW,248,3.5,3.5,44,0.00,OVC,,0.00,152.6,WeatherDisplay:10.37,2013-07-22 08:11:00,
2013-07-22 10:16:00,74.3,51.0,30.12,SSW,202,3.5,3.5,44,0.00,OVC,,0.00,154.8,WeatherDisplay:10.37,2013-07-22 08:16:00,
2013-07-22 10:21:00,74.7,50.7,30.09,WSW,248,4.6,4.6,43,0.00,OVC,,0.00,156.9,WeatherDisplay:10.37,2013-07-22 08:21:00,
2013-07-22 10:26:00,75.0,51.6,30.09,SW,225,4.6,4.6,44,0.00,OVC,,0.00,159.1,WeatherDisplay:10.37,2013-07-22 08:26:00,
2013-07-22 10:31:00,75.0,51.0,30.09,SW,225,3.5,3.5,43,0.00,OVC,,0.00,161.2,WeatherDisplay:10.37,2013-07-22 08:31:00,
2013-07-22 10:36:00,75.2,51.2,30.09,WNW,292,4.3,4.3,43,0.00,OVC,,0.00,163.2,WeatherDisplay:10.37,2013-07-22 08:36:00,
2013-07-22 10:41:00,75.4,51.9,30.09,ESE,112,4.6,4.6,44,0.00,OVC,,0.00,165.2,WeatherDisplay:10.37,2013-07-22 08:41:00,
2013-07-22 10:46:00,75.6,51.5,30.09,WSW,248,2.3,2.3,43,0.00,OVC,,0.00,167.0,WeatherDisplay:10.37,2013-07-22 08:46:00,
2013-07-22 10:51:00,75.9,51.2,30.09,WSW,248,3.5,3.5,42,0.00,OVC,,0.00,169.0,WeatherDisplay:10.37,2013-07-22 08:51:00,
2013-07-22 10:56:00,76.1,51.3,30.09,WSW,248,4.6,4.6,42,0.00,OVC,,0.00,170.8,WeatherDisplay:10.37,2013-07-22 08:56:00,
2013-07-22 11:01:00,76.5,52.3,30.09,West,270,5.8,5.8,43,0.00,OVC,,0.00,172.4,WeatherDisplay:10.37,2013-07-22 09:01:00,
2013-07-22 11:06:00,76.6,51.2,30.09,NNW,338,4.6,4.6,41,0.00,OVC,,0.00,174.1,WeatherDisplay:10.37,2013-07-22 09:06:00,
2013-07-22 11:11:00,76.8,52.0,30.09,SSE,158,2.3,2.3,42,0.00,OVC,,0.00,175.7,WeatherDisplay:10.37,2013-07-22 09:11:00,
2013-07-22 11:16:00,77.4,52.5,30.09,WSW,248,5.8,5.8,42,0.00,OVC,,0.00,177.4,WeatherDisplay:10.37,2013-07-22 09:16:00,
2013-07-22 11:21:00,77.5,52.0,30.09,SSW,202,5.8,5.8,41,0.00,OVC,,0.00,178.9,WeatherDisplay:10.37,2013-07-22 09:21:00,
2013-07-22 11:26:00,78.1,51.8,30.09,West,270,6.0,6.0,40,0.00,OVC,,0.00,180.3,WeatherDisplay:10.37,2013-07-22 09:26:00,
2013-07-22 11:31:00,78.1,51.8,30.09,NNW,338,2.9,2.9,40,0.00,OVC,,0.00,181.7,WeatherDisplay:10.37,2013-07-22 09:31:00,
2013-07-22 11:36:00,78.3,52.6,30.09,ENE,68,2.4,2.4,41,0.00,OVC,,0.00,183.0,WeatherDisplay:10.37,2013-07-22 09:36:00,
2013-07-22 11:41:00,78.4,52.8,30.09,ESE,112,3.5,3.5,41,0.00,OVC,,0.00,184.3,WeatherDisplay:10.37,2013-07-22 09:41:00,
2013-07-22 11:46:00,78.4,50.7,30.09,NNE,22,3.5,3.5,38,0.00,OVC,,0.00,185.5,WeatherDisplay:10.37,2013-07-22 09:46:00,
2013-07-22 11:51:00,78.3,50.6,30.06,WNW,292,5.8,5.8,38,0.00,OVC,,0.00,186.6,WeatherDisplay:10.37,2013-07-22 09:51:00,
2013-07-22 11:56:00,78.4,51.4,30.06,SSE,158,6.9,6.9,39,0.00,OVC,,0.00,187.6,WeatherDisplay:10.37,2013-07-22 09:56:00,
2013-07-22 12:01:00,78.6,50.9,30.06,ESE,112,4.6,4.6,38,0.00,OVC,,0.00,188.6,WeatherDisplay:10.37,2013-07-22 10:01:00,
2013-07-22 12:06:00,78.6,52.3,30.06,WNW,292,4.0,4.0,40,0.00,OVC,,0.00,189.4,WeatherDisplay:10.37,2013-07-22 10:06:00,
2013-07-22 12:11:00,78.3,51.3,30.06,NW,315,3.5,3.5,39,0.00,OVC,,0.00,190.2,WeatherDisplay:10.37,2013-07-22 10:11:00,
2013-07-22 12:16:00,78.4,52.1,30.06,NNE,22,3.8,3.8,40,0.00,OVC,,0.00,191.1,WeatherDisplay:10.37,2013-07-22 10:16:00,
2013-07-22 12:21:00,78.8,51.7,30.03,WSW,248,5.8,5.8,39,0.00,OVC,,0.00,191.7,WeatherDisplay:10.37,2013-07-22 10:21:00,
2013-07-22 12:26:00,79.0,52.6,30.03,NNW,338,4.0,4.0,40,0.00,OVC,,0.00,192.4,WeatherDisplay:10.37,2013-07-22 10:26:00,
2013-07-22 12:31:00,79.2,52.1,30.03,SSW,202,2.9,0.0,39,0.00,OVC,,0.00,192.9,WeatherDisplay:10.37,2013-07-22 10:31:00,
2013-07-22 12:36:00,79.5,53.1,30.03,NNE,22,3.5,3.5,40,0.00,OVC,,0.00,193.4,WeatherDisplay:10.37,2013-07-22 10:36:00,
2013-07-22 12:41:00,79.3,50.8,30.03,SSW,202,3.8,3.8,37,0.00,OVC,,0.00,193.9,WeatherDisplay:10.37,2013-07-22 10:41:00,
2013-07-22 12:46:00,79.3,52.9,30.03,ENE,68,4.7,4.7,40,0.00,OVC,,0.00,194.2,WeatherDisplay:10.37,2013-07-22 10:46:00,
2013-07-22 12:51:00,79.5,53.1,30.09,WNW,292,3.5,3.5,40,0.00,OVC,,0.00,194.4,WeatherDisplay:10.37,2013-07-22 10:51:00,
2013-07-22 12:56:00,79.9,52.7,30.09,ESE,112,4.6,4.6,39,0.00,OVC,,0.00,194.5,WeatherDisplay:10.37,2013-07-22 10:56:00,
2013-07-22 13:01:00,79.9,52.0,30.09,SSW,202,5.8,5.8,38,0.00,OVC,,0.00,194.7,WeatherDisplay:10.37,2013-07-22 11:01:00,
2013-07-22 13:06:00,80.2,50.9,30.06,WNW,292,4.6,4.6,36,0.00,OVC,,0.00,194.7,WeatherDisplay:10.37,2013-07-22 11:06:00,
2013-07-22 13:11:00,80.6,50.4,30.06,SSW,202,5.8,5.8,35,0.00,OVC,,0.00,194.7,WeatherDisplay:10.37,2013-07-22 11:11:00,
2013-07-22 13:16:00,81.0,50.7,30.06,West,270,5.8,5.8,35,0.00,OVC,,0.00,194.5,WeatherDisplay:10.37,2013-07-22 11:16:00,
2013-07-22 13:21:00,81.3,50.3,30.06,WNW,292,2.3,2.3,34,0.00,OVC,,0.00,194.4,WeatherDisplay:10.37,2013-07-22 11:21:00,
2013-07-22 13:26:00,81.7,52.1,30.06,WSW,248,2.3,2.3,36,0.00,OVC,,0.00,194.0,WeatherDisplay:10.37,2013-07-22 11:26:00,
2013-07-22 13:31:00,82.0,51.7,30.06,WSW,248,5.8,5.8,35,0.00,OVC,,0.00,193.7,WeatherDisplay:10.37,2013-07-22 11:31:00,
2013-07-22 13:36:00,82.0,51.7,30.03,WNW,292,4.6,4.6,35,0.00,OVC,,0.00,193.4,WeatherDisplay:10.37,2013-07-22 11:36:00,
2013-07-22 13:41:00,82.0,51.7,30.03,WNW,292,9.7,9.7,35,0.00,OVC,,0.00,192.9,WeatherDisplay:10.37,2013-07-22 11:41:00,
2013-07-22 13:46:00,82.2,51.8,30.03,West,270,9.8,9.8,35,0.00,OVC,,0.00,192.4,WeatherDisplay:10.37,2013-07-22 11:46:00,
2013-07-22 13:51:00,82.2,51.8,30.03,West,270,3.6,3.6,35,0.00,OVC,,0.00,191.7,WeatherDisplay:10.37,2013-07-22 11:51:00,
2013-07-22 13:56:00,82.4,51.2,30.03,West,270,5.4,5.4,34,0.00,OVC,,0.00,191.1,WeatherDisplay:10.37,2013-07-22 11:56:00,
2013-07-22 14:01:00,82.6,49.7,30.03,NNW,338,6.9,6.9,32,0.00,OVC,,0.00,190.2,WeatherDisplay:10.37,2013-07-22 12:01:00,
2013-07-22 14:02:00,82.6,51.4,30.03,NNW,338,6.9,6.9,34,0.00,OVC,,0.00,190.1,WeatherDisplay:10.37,2013-07-22 12:02:00,
2013-07-22 14:07:00,82.8,51.5,30.00,NNW,338,6.9,6.9,34,0.00,OVC,,0.00,189.3,WeatherDisplay:10.37,2013-07-22 12:07:00,
2013-07-22 14:12:00,82.9,51.7,30.00,NNE,22,5.8,5.8,34,0.00,OVC,,0.00,188.3,WeatherDisplay:10.37,2013-07-22 12:12:00,
2013-07-22 14:17:00,83.3,51.2,30.00,SSW,202,3.5,3.5,33,0.00,OVC,,0.00,187.3,WeatherDisplay:10.37,2013-07-22 12:17:00,
2013-07-22 14:22:00,83.8,52.5,30.00,WNW,292,4.0,4.0,34,0.00,OVC,,0.00,186.3,WeatherDisplay:10.37,2013-07-22 12:22:00,
2013-07-22 14:27:00,84.6,51.5,30.00,SSW,202,3.5,3.5,32,0.00,OVC,,0.00,185.1,WeatherDisplay:10.37,2013-07-22 12:27:00,
2013-07-22 14:32:00,84.7,52.4,30.00,ESE,112,2.4,2.4,33,0.00,OVC,,0.00,184.0,WeatherDisplay:10.37,2013-07-22 12:32:00,
2013-07-22 14:37:00,84.7,52.4,30.00,NNW,338,3.5,3.5,33,0.00,OVC,,0.00,182.7,WeatherDisplay:10.37,2013-07-22 12:37:00,
2013-07-22 14:42:00,84.7,50.8,30.00,WSW,248,6.9,6.9,31,0.00,OVC,,0.00,181.3,WeatherDisplay:10.37,2013-07-22 12:42:00,
2013-07-22 14:47:00,85.1,51.9,30.00,WSW,248,2.9,2.9,32,0.00,OVC,,0.00,180.0,WeatherDisplay:10.37,2013-07-22 12:47:00,
2013-07-22 14:52:00,85.8,53.4,29.97,WNW,292,2.9,2.9,33,0.00,OVC,,0.00,178.5,WeatherDisplay:10.37,2013-07-22 12:52:00,
2013-07-22 14:57:00,86.4,51.3,29.97,SSW,202,6.9,6.9,30,0.00,OVC,,0.00,177.0,WeatherDisplay:10.37,2013-07-22 12:57:00,
2013-07-22 15:02:00,87.1,52.8,29.97,NNW,338,5.8,5.8,31,0.00,OVC,,0.00,175.4,WeatherDisplay:10.37,2013-07-22 13:02:00,
2013-07-22 15:07:00,86.7,52.5,30.03,West,270,1.2,0.0,31,0.00,OVC,,0.00,173.7,WeatherDisplay:10.37,2013-07-22 13:07:00,
2013-07-22 15:12:00,86.2,51.1,30.03,ENE,68,5.8,5.8,30,0.00,OVC,,0.00,172.1,WeatherDisplay:10.37,2013-07-22 13:12:00,
2013-07-22 15:17:00,86.5,52.3,30.03,NNE,22,3.8,3.8,31,0.00,OVC,,0.00,170.3,WeatherDisplay:10.37,2013-07-22 13:17:00,
2013-07-22 15:22:00,86.5,51.4,30.00,SSW,202,3.6,3.6,30,0.00,OVC,,0.00,168.5,WeatherDisplay:10.37,2013-07-22 13:22:00,
2013-07-22 15:27:00,86.9,51.7,30.00,WNW,292,4.6,4.6,30,0.00,OVC,,0.00,166.7,WeatherDisplay:10.37,2013-07-22 13:27:00,
2013-07-22 15:32:00,87.4,52.2,30.00,West,270,2.3,2.3,30,0.00,OVC,,0.00,164.7,WeatherDisplay:10.37,2013-07-22 13:32:00,
2013-07-22 15:37:00,87.4,52.2,30.00,NW,315,6.9,6.9,30,0.00,OVC,,0.00,162.7,WeatherDisplay:10.37,2013-07-22 13:37:00,
2013-07-22 15:42:00,87.4,52.2,30.00,West,270,4.9,4.9,30,0.00,OVC,,0.00,160.7,WeatherDisplay:10.37,2013-07-22 13:42:00,
2013-07-22 15:47:00,88.0,52.7,30.00,NNW,338,3.6,3.6,30,0.00,OVC,,0.00,158.6,WeatherDisplay:10.37,2013-07-22 13:47:00,
2013-07-22 15:52:00,88.5,53.1,29.97,West,270,4.6,4.6,30,0.00,OVC,,0.00,156.4,WeatherDisplay:10.37,2013-07-22 13:52:00,
2013-07-22 15:57:00,88.9,52.5,29.97,WNW,292,5.8,5.8,29,0.00,OVC,,0.00,154.3,WeatherDisplay:10.37,2013-07-22 13:57:00,
2013-07-22 16:02:00,89.1,53.6,29.97,North,0,5.8,5.8,30,0.00,OVC,,0.00,152.0,WeatherDisplay:10.37,2013-07-22 14:02:00,
2013-07-22 16:07:00,89.1,52.7,29.97,NNW,338,6.9,6.9,29,0.00,OVC,,0.00,149.8,WeatherDisplay:10.37,2013-07-22 14:07:00,
2013-07-22 16:12:00,88.9,52.5,29.97,ENE,68,5.8,5.8,29,0.00,OVC,,0.00,147.5,WeatherDisplay:10.37,2013-07-22 14:12:00,
2013-07-22 16:17:00,89.1,52.7,29.97,SSW,202,4.9,4.9,29,0.00,OVC,,0.00,145.0,WeatherDisplay:10.37,2013-07-22 14:17:00,
2013-07-22 16:22:00,88.9,52.5,29.97,NNW,338,3.5,3.5,29,0.00,OVC,,0.00,142.7,WeatherDisplay:10.37,2013-07-22 14:22:00,
2013-07-22 16:27:00,88.3,51.1,29.97,West,270,6.9,6.9,28,0.00,OVC,,0.00,140.3,WeatherDisplay:10.37,2013-07-22 14:27:00,
2013-07-22 16:32:00,88.7,52.4,29.97,SSW,202,2.3,2.3,29,0.00,OVC,,0.00,137.8,WeatherDisplay:10.37,2013-07-22 14:32:00,
2013-07-22 16:37:00,88.9,52.5,29.97,NE,45,4.6,4.6,29,0.00,OVC,,0.00,135.3,WeatherDisplay:10.37,2013-07-22 14:37:00,
2013-07-22 16:42:00,88.9,51.6,29.97,WNW,292,4.6,4.6,28,0.00,OVC,,0.00,132.8,WeatherDisplay:10.37,2013-07-22 14:42:00,
2013-07-22 16:47:00,88.9,51.6,29.97,North,0,5.8,5.8,28,0.00,OVC,,0.00,130.2,WeatherDisplay:10.37,2013-07-22 14:47:00,
2013-07-22 16:52:00,88.5,51.3,29.94,NNE,22,5.8,5.8,28,0.00,OVC,,0.00,127.7,WeatherDisplay:10.37,2013-07-22 14:52:00,
2013-07-22 16:57:00,88.7,51.4,29.94,NW,315,5.9,5.9,28,0.00,OVC,,0.00,125.1,WeatherDisplay:10.37,2013-07-22 14:57:00,
2013-07-22 17:02:00,88.3,51.1,29.94,NNW,338,5.8,5.8,28,0.00,OVC,,0.00,122.4,WeatherDisplay:10.37,2013-07-22 15:02:00,
2013-07-22 17:07:00,88.5,52.2,29.94,WNW,292,4.6,4.6,29,0.00,OVC,,0.00,119.8,WeatherDisplay:10.37,2013-07-22 15:07:00,
2013-07-22 17:12:00,88.9,52.5,29.94,West,270,4.6,4.6,29,0.00,OVC,,0.00,117.0,WeatherDisplay:10.37,2013-07-22 15:12:00,
2013-07-22 17:17:00,89.1,51.7,29.94,NNW,338,6.2,6.2,28,0.00,OVC,,0.00,114.3,WeatherDisplay:10.37,2013-07-22 15:17:00,
2013-07-22 17:22:00,88.7,51.4,29.94,NNE,22,5.8,5.8,28,0.00,OVC,,0.00,111.5,WeatherDisplay:10.37,2013-07-22 15:22:00,
2013-07-22 17:27:00,88.0,50.8,29.94,NNE,22,4.6,4.6,28,0.00,OVC,,0.00,108.9,WeatherDisplay:10.37,2013-07-22 15:27:00,
2013-07-22 17:32:00,86.4,49.4,29.94,NW,315,5.8,5.8,28,0.00,OVC,,0.00,106.1,WeatherDisplay:10.37,2013-07-22 15:32:00,
2013-07-22 17:37:00,86.0,50.0,29.94,NNW,338,4.6,4.6,29,0.00,OVC,,0.00,103.3,WeatherDisplay:10.37,2013-07-22 15:37:00,
2013-07-22 17:42:00,85.8,50.8,29.94,NW,315,4.6,4.6,30,0.00,OVC,,0.00,100.5,WeatherDisplay:10.37,2013-07-22 15:42:00,
2013-07-22 17:47:00,85.3,50.3,29.94,WNW,292,5.8,5.8,30,0.00,OVC,,0.00,97.7,WeatherDisplay:10.37,2013-07-22 15:47:00,
2013-07-22 17:52:00,84.6,48.8,29.94,NW,315,5.8,5.8,29,0.00,OVC,,0.00,94.9,WeatherDisplay:10.37,2013-07-22 15:52:00,
2013-07-22 17:57:00,83.8,49.1,29.94,WNW,292,4.9,4.9,30,0.00,OVC,,0.00,92.1,WeatherDisplay:10.37,2013-07-22 15:57:00,
2013-07-22 18:02:00,83.5,48.8,29.94,WNW,292,3.5,3.5,30,0.00,OVC,,0.00,89.3,WeatherDisplay:10.37,2013-07-22 16:02:00,
2013-07-22 18:07:00,82.9,49.2,29.91,WNW,292,3.5,3.5,31,0.00,OVC,,0.00,86.5,WeatherDisplay:10.37,2013-07-22 16:07:00,
2013-07-22 18:12:00,82.6,48.9,29.91,WSW,248,3.5,3.5,31,0.00,OVC,,0.00,83.7,WeatherDisplay:10.37,2013-07-22 16:12:00,
2013-07-22 18:17:00,82.2,49.4,29.91,NW,315,2.3,2.3,32,0.00,OVC,,0.00,80.8,WeatherDisplay:10.37,2013-07-22 16:17:00,
2013-07-22 18:22:00,81.9,48.3,29.91,WSW,248,4.6,4.6,31,0.00,OVC,,0.00,78.0,WeatherDisplay:10.37,2013-07-22 16:22:00,
2013-07-22 18:27:00,81.7,48.9,29.91,WNW,292,5.9,5.9,32,0.00,OVC,,0.00,75.2,WeatherDisplay:10.37,2013-07-22 16:27:00,
2013-07-22 18:32:00,81.7,48.9,29.91,NW,315,5.8,5.8,32,0.00,OVC,,0.00,72.4,WeatherDisplay:10.37,2013-07-22 16:32:00,
2013-07-22 18:37:00,81.5,48.8,29.94,NNW,338,3.5,3.5,32,0.00,OVC,,0.00,69.6,WeatherDisplay:10.37,2013-07-22 16:37:00,
2013-07-22 18:42:00,81.3,48.6,29.94,WNW,292,3.6,3.6,32,0.00,OVC,,0.00,66.8,WeatherDisplay:10.37,2013-07-22 16:42:00,
2013-07-22 18:47:00,81.3,48.6,29.94,WNW,292,5.8,5.8,32,0.00,OVC,,0.00,64.0,WeatherDisplay:10.37,2013-07-22 16:47:00,
2013-07-22 18:52:00,81.3,48.6,29.97,NNW,338,5.8,5.8,32,0.00,OVC,,0.00,61.2,WeatherDisplay:10.37,2013-07-22 16:52:00,
2013-07-22 18:57:00,81.3,48.6,29.97,NNW,338,4.6,4.6,32,0.00,OVC,,0.00,58.4,WeatherDisplay:10.37,2013-07-22 16:57:00,
2013-07-22 19:02:00,81.3,49.5,29.97,WNW,292,3.5,3.5,33,0.00,OVC,,0.00,55.6,WeatherDisplay:10.37,2013-07-22 17:02:00,
2013-07-22 19:07:00,81.1,49.3,29.94,WNW,292,3.5,3.6,33,0.00,OVC,,0.00,53.0,WeatherDisplay:10.37,2013-07-22 17:07:00,
2013-07-22 19:12:00,81.0,49.1,29.94,NNW,338,4.6,4.6,33,0.00,OVC,,0.00,50.2,WeatherDisplay:10.37,2013-07-22 17:12:00,
2013-07-22 19:17:00,80.8,49.0,29.94,WNW,292,4.6,4.6,33,0.00,OVC,,0.00,47.5,WeatherDisplay:10.37,2013-07-22 17:17:00,
2013-07-22 19:23:00,80.6,48.8,29.97,WNW,292,4.6,4.6,33,0.00,OVC,,0.00,44.2,WeatherDisplay:10.37,2013-07-22 17:23:00,
2013-07-22 19:28:00,80.4,48.7,29.97,NNW,338,5.8,5.8,33,0.00,OVC,,0.00,41.6,WeatherDisplay:10.37,2013-07-22 17:28:00,
2013-07-22 19:33:00,80.2,48.5,29.97,North,0,5.8,5.8,33,0.00,OVC,,0.00,38.9,WeatherDisplay:10.37,2013-07-22 17:33:00,
2013-07-22 19:38:00,80.1,49.2,29.91,NW,315,4.6,4.6,34,0.00,OVC,,0.00,36.3,WeatherDisplay:10.37,2013-07-22 17:38:00,
2013-07-22 19:43:00,79.9,49.0,29.91,NNW,338,5.8,5.8,34,0.00,OVC,,0.00,33.7,WeatherDisplay:10.37,2013-07-22 17:43:00,
2013-07-22 19:48:00,79.5,48.7,29.91,NNW,338,5.8,5.8,34,0.00,OVC,,0.00,31.2,WeatherDisplay:10.37,2013-07-22 17:48:00,
2013-07-22 19:53:00,79.5,48.7,29.97,NW,315,3.5,3.5,34,0.00,OVC,,0.00,28.5,WeatherDisplay:10.37,2013-07-22 17:53:00,
2013-07-22 19:59:00,79.2,48.4,29.97,NNW,338,2.6,2.6,34,0.00,OVC,,0.00,25.6,WeatherDisplay:10.37,2013-07-22 17:59:00,
2013-07-22 20:04:00,78.8,48.8,29.97,NNW,338,3.5,3.5,35,0.00,OVC,,0.00,23.1,WeatherDisplay:10.37,2013-07-22 18:04:00,
2013-07-22 20:09:00,78.4,48.5,29.94,NNW,338,4.6,4.6,35,0.00,OVC,,0.00,20.6,WeatherDisplay:10.37,2013-07-22 18:09:00,
2013-07-22 20:14:00,78.1,48.9,29.94,NNW,338,3.5,3.5,36,0.00,OVC,,0.00,18.1,WeatherDisplay:10.37,2013-07-22 18:14:00,
2013-07-22 20:21:00,77.5,48.5,29.94,WNW,292,3.5,3.5,36,0.00,OVC,,0.00,14.8,WeatherDisplay:10.37,2013-07-22 18:21:00,
2013-07-22 20:26:00,77.2,48.9,29.91,NNW,338,2.4,2.4,37,0.00,OVC,,0.00,12.4,WeatherDisplay:10.37,2013-07-22 18:26:00,
2013-07-22 20:31:00,76.8,49.3,29.91,NNW,338,2.3,2.3,38,0.00,OVC,,0.00,10.1,WeatherDisplay:10.37,2013-07-22 18:31:00,
2013-07-22 20:36:00,76.5,49.0,29.91,NNW,338,2.4,2.4,38,0.00,OVC,,0.00,7.8,WeatherDisplay:10.37,2013-07-22 18:36:00,
2013-07-22 20:42:00,75.9,49.2,29.91,NW,315,2.6,2.6,39,0.00,OVC,,0.00,5.1,WeatherDisplay:10.37,2013-07-22 18:42:00,
2013-07-22 20:47:00,75.6,48.9,29.91,WNW,292,2.3,2.3,39,0.00,OVC,,0.00,2.8,WeatherDisplay:10.37,2013-07-22 18:47:00,
2013-07-22 20:52:00,75.0,49.1,29.94,NW,315,2.3,2.3,40,0.00,OVC,,0.00,0.7,WeatherDisplay:10.37,2013-07-22 18:52:00,
2013-07-22 20:57:00,74.5,49.2,29.94,NW,315,2.3,2.3,41,0.00,OVC,,0.00,0.7,WeatherDisplay:10.37,2013-07-22 18:57:00,
2013-07-22 21:02:00,73.9,48.7,29.94,NW,315,2.3,2.3,41,0.00,CLR,,0.00,0.0,WeatherDisplay:10.37,2013-07-22 19:02:00,
2013-07-22 21:07:00,73.6,49.1,29.91,NW,315,1.4,1.4,42,0.00,CLR,,0.00,0.0,WeatherDisplay:10.37,2013-07-22 19:07:00,
2013-07-22 21:13:00,73.0,49.2,29.91,NW,315,0.0,0.0,43,0.00,CLR,,0.00,0.0,WeatherDisplay:10.37,2013-07-22 19:13:00,
2013-07-22 21:18:00,72.5,48.7,29.91,NW,315,0.0,0.0,43,0.00,CLR,,0.00,0.0,WeatherDisplay:10.37,2013-07-22 19:18:00,
2013-07-22 21:23:00,72.0,48.9,29.91,WSW,248,0.0,0.0,44,0.00,CLR,,0.00,0.0,WeatherDisplay:10.37,2013-07-22 19:23:00,
2013-07-22 21:28:00,71.4,49.0,29.91,WSW,248,0.0,0.0,45,0.00,CLR,,0.00,0.0,WeatherDisplay:10.37,2013-07-22 19:28:00,
2013-07-22 21:33:00,71.1,49.2,29.91,WSW,248,0.0,0.0,46,0.00,CLR,,0.00,0.0,WeatherDisplay:10.37,2013-07-22 19:33:00,
2013-07-22 21:38:00,70.5,48.7,29.94,WSW,248,0.0,0.0,46,0.00,CLR,,0.00,0.0,WeatherDisplay:10.37,2013-07-22 19:38:00,
2013-07-22 21:44:00,70.2,49.0,29.94,WSW,248,0.0,0.0,47,0.00,CLR,,0.00,0.0,WeatherDisplay:10.37,2013-07-22 19:44:00,
2013-07-22 21:49:00,69.8,48.7,29.94,WSW,248,0.0,0.0,47,0.00,CLR,,0.00,0.0,WeatherDisplay:10.37,2013-07-22 19:49:00,
2013-07-22 21:54:00,69.4,48.9,29.94,WSW,248,0.0,0.0,48,0.00,CLR,,0.00,0.0,WeatherDisplay:10.37,2013-07-22 19:54:00,
2013-07-22 22:00:00,69.1,49.1,29.94,WSW,248,0.0,0.0,49,0.00,CLR,,0.00,0.0,WeatherDisplay:10.37,2013-07-22 20:00:00,
2013-07-22 22:05:00,68.7,48.8,29.94,WSW,248,0.0,0.0,49,0.00,CLR,,0.00,0.0,WeatherDisplay:10.37,2013-07-22 20:05:00,
2013-07-22 22:10:00,68.4,48.5,29.94,WSW,248,0.0,0.0,49,0.00,CLR,,0.00,0.0,WeatherDisplay:10.37,2013-07-22 20:10:00,
2013-07-22 22:15:00,68.2,48.8,29.94,WSW,248,0.0,0.0,50,0.00,CLR,,0.00,0.0,WeatherDisplay:10.37,2013-07-22 20:15:00,
2013-07-22 22:17:00,68.0,48.7,29.94,WSW,248,0.0,0.0,50,0.00,CLR,,0.00,0.0,WeatherDisplay:10.37,2013-07-22 20:17:00,
2013-07-22 22:22:00,67.8,49.0,29.94,WSW,248,0.0,0.0,51,0.00,CLR,,0.00,0.0,WeatherDisplay:10.37,2013-07-22 20:22:00,
2013-07-22 22:27:00,67.5,48.7,29.94,WSW,248,0.0,0.0,51,0.00,CLR,,0.00,0.0,WeatherDisplay:10.37,2013-07-22 20:27:00,
2013-07-22 22:32:00,67.3,49.0,29.94,WSW,248,0.0,0.0,52,0.00,CLR,,0.00,0.0,WeatherDisplay:10.37,2013-07-22 20:32:00,
2013-07-22 22:37:00,67.1,49.4,29.94,WSW,248,0.0,0.0,53,0.00,CLR,,0.00,0.0,WeatherDisplay:10.37,2013-07-22 20:37:00,
2013-07-22 22:42:00,66.9,49.2,29.94,WSW,248,0.0,0.0,53,0.00,CLR,,0.00,0.0,WeatherDisplay:10.37,2013-07-22 20:42:00,
2013-07-22 22:43:00,66.7,49.1,29.94,WSW,248,0.0,0.0,53,0.00,CLR,,0.00,0.0,WeatherDisplay:10.37,2013-07-22 20:43:00,
2013-07-22 22:48:00,66.6,49.4,29.94,WSW,248,0.0,0.0,54,0.00,CLR,,0.00,0.0,WeatherDisplay:10.37,2013-07-22 20:48:00,
2013-07-22 22:53:00,66.4,49.2,29.94,WSW,248,0.0,0.0,54,0.00,CLR,,0.00,0.0,WeatherDisplay:10.37,2013-07-22 20:53:00,
2013-07-22 22:58:00,66.2,49.6,29.94,WSW,248,0.0,0.0,55,0.00,CLR,,0.00,0.0,WeatherDisplay:10.37,2013-07-22 20:58:00,
2013-07-22 23:03:00,66.0,49.4,29.94,WSW,248,0.0,0.0,55,0.00,CLR,,0.00,0.0,WeatherDisplay:10.37,2013-07-22 21:03:00,
2013-07-22 23:08:00,65.8,49.7,29.94,WSW,248,0.0,0.0,56,0.00,CLR,,0.00,0.0,WeatherDisplay:10.37,2013-07-22 21:08:00,
2013-07-22 23:13:00,65.7,50.0,29.94,WSW,248,0.0,0.0,57,0.00,CLR,,0.00,0.0,WeatherDisplay:10.37,2013-07-22 21:13:00,
2013-07-22 23:18:00,65.5,49.8,29.94,WSW,248,0.0,0.0,57,0.00,CLR,,0.00,0.0,WeatherDisplay:10.37,2013-07-22 21:18:00,
2013-07-22 23:23:00,65.5,50.3,29.94,WSW,248,0.0,0.0,58,0.00,CLR,,0.00,0.0,WeatherDisplay:10.37,2013-07-22 21:23:00,
2013-07-22 23:28:00,65.3,50.1,29.94,WSW,248,0.0,0.0,58,0.00,CLR,,0.00,0.0,WeatherDisplay:10.37,2013-07-22 21:28:00,
2013-07-22 23:33:00,65.1,50.4,29.94,WSW,248,0.0,0.0,59,0.00,CLR,,0.00,0.0,WeatherDisplay:10.37,2013-07-22 21:33:00,
2013-07-22 23:38:00,64.8,50.5,29.94,WSW,248,0.0,0.0,60,0.00,CLR,,0.00,0.0,WeatherDisplay:10.37,2013-07-22 21:38:00,
2013-07-22 23:43:00,64.6,49.9,29.94,WSW,248,0.0,0.0,59,0.00,CLR,,0.00,0.0,WeatherDisplay:10.37,2013-07-22 21:43:00,
2013-07-22 23:48:00,64.4,50.2,29.94,WSW,248,0.0,0.0,60,0.00,CLR,,0.00,0.0,WeatherDisplay:10.37,2013-07-22 21:48:00,
2013-07-22 23:53:00,64.4,50.7,29.94,WSW,248,0.0,0.0,61,0.00,CLR,,0.00,0.0,WeatherDisplay:10.37,2013-07-22 21:53:00,
2013-07-22 23:58:00,64.2,50.5,29.94,WSW,248,0.0,0.0,61,0.00,CLR,,0.00,0.0,WeatherDisplay:10.37,2013-07-22 21:58:00,